Time;durP1;ratioP1;P1;durP2;ratioP2;P2;SDS_P1;SDS_P2;PMS_P1;PMS_P2;Temp;Humidity;BMP_temperature;BMP_pressure;BME280_temperature;BME280_humidity;BME280_pressure;Samples;Min_cycle;Max_cycle;Signal;HPM_P1;HPM_P2
2023/11/12 00:02:12;;;;;;;2.72;1.50;;;;;;;20.35;42.33;100476.53;5025277;28;20048;-72
2023/11/12 00:04:37;;;;;;;1.45;1.30;;;;;;;20.34;42.29;100479.38;5029352;28;20380;-72
2023/11/12 00:07:03;;;;;;;1.60;1.50;;;;;;;20.32;42.36;100471.63;5019851;28;20157;-73
2023/11/12 00:09:29;;;;;;;2.53;1.48;;;;;;;20.31;42.36;100477.13;5019200;28;20049;-72
2023/11/12 00:11:54;;;;;;;1.70;1.60;;;;;;;20.31;42.29;100482.41;5025893;28;20036;-72
2023/11/12 00:14:20;;;;;;;1.70;1.60;;;;;;;20.26;42.55;100477.66;5023304;28;20045;-72
2023/11/12 00:16:45;;;;;;;2.05;1.70;;;;;;;20.29;42.43;100490.53;5024920;28;20530;-73
2023/11/12 00:19:11;;;;;;;2.85;1.67;;;;;;;20.25;42.37;100486.59;5028269;28;20042;-72
2023/11/12 00:21:37;;;;;;;3.08;2.30;;;;;;;20.27;42.37;100489.88;5026834;28;20506;-72
2023/11/12 00:24:02;;;;;;;2.17;1.65;;;;;;;20.26;42.48;100490.88;5021107;28;20030;-73
2023/11/12 00:26:28;;;;;;;1.70;1.60;;;;;;;20.25;42.38;100494.53;5027899;28;20038;-73
2023/11/12 00:28:55;;;;;;;2.83;1.80;;;;;;;20.23;42.48;100492.09;5031425;28;20160;-73
2023/11/12 00:31:24;;;;;;;2.97;2.15;;;;;;;20.10;42.42;100470.00;5015778;28;20136;-72
2023/11/12 00:33:49;;;;;;;1.85;1.70;;;;;;;20.19;42.51;100484.75;5026142;28;20061;-72
2023/11/12 00:36:15;;;;;;;1.70;1.50;;;;;;;20.19;42.51;100484.75;5025822;28;20041;-72
2023/11/12 00:38:41;;;;;;;2.05;1.63;;;;;;;20.17;42.46;100478.81;5023426;28;20083;-72
2023/11/12 00:41:07;;;;;;;2.85;1.83;;;;;;;20.18;42.50;100483.91;5024366;28;20479;-72
2023/11/12 00:43:34;;;;;;;2.08;1.73;;;;;;;20.07;42.60;100465.09;5029042;28;20041;-72
2023/11/12 00:46:00;;;;;;;2.63;1.80;;;;;;;20.18;42.29;100486.56;5031515;28;20521;-72
2023/11/12 00:48:27;;;;;;;2.05;1.70;;;;;;;20.03;42.33;100459.38;5010820;28;20107;-72
2023/11/12 00:50:53;;;;;;;3.20;1.95;;;;;;;20.06;42.43;100458.19;5031307;28;20045;-73
2023/11/12 00:53:19;;;;;;;3.10;1.90;;;;;;;20.16;42.47;100471.91;5024367;28;20026;-72
2023/11/12 00:55:44;;;;;;;2.92;1.77;;;;;;;20.15;42.40;100470.28;5023124;28;20667;-72
2023/11/12 00:58:10;;;;;;;1.60;1.50;;;;;;;20.12;42.47;100475.94;5019590;28;20065;-72
2023/11/12 01:00:35;;;;;;;2.80;2.00;;;;;;;20.04;42.38;100454.91;5024154;28;20040;-72
2023/11/12 01:03:02;;;;;;;2.45;1.50;;;;;;;20.09;42.11;100460.44;5025573;28;20072;-72
2023/11/12 01:05:28;;;;;;;2.28;1.80;;;;;;;20.15;42.25;100470.28;5022403;28;20041;-72
2023/11/12 01:07:54;;;;;;;2.13;1.73;;;;;;;20.22;42.23;100458.72;5027058;28;20032;-72
2023/11/12 01:10:19;;;;;;;2.00;1.75;;;;;;;20.28;42.08;100467.72;5023686;28;20056;-72
2023/11/12 01:12:45;;;;;;;2.38;1.80;;;;;;;20.24;42.33;100461.19;5021449;28;20038;-72
2023/11/12 01:15:12;;;;;;;2.83;1.75;;;;;;;20.32;42.20;100474.28;5026339;28;20045;-72
2023/11/12 01:17:38;;;;;;;2.67;1.77;;;;;;;20.32;42.12;100466.34;5025013;28;20044;-72
2023/11/12 01:20:06;;;;;;;2.50;1.77;;;;;;;20.30;42.32;100471.00;5024134;28;20041;-72
2023/11/12 01:22:32;;;;;;;2.40;1.90;;;;;;;20.28;42.30;100464.25;5023295;28;20259;-72
2023/11/12 01:24:57;;;;;;;1.83;1.73;;;;;;;20.31;42.37;100472.66;5026488;28;20038;-72
2023/11/12 01:27:23;;;;;;;2.78;1.77;;;;;;;20.29;42.37;100468.53;5029734;28;20712;-72
2023/11/12 01:29:48;;;;;;;2.38;1.88;;;;;;;20.29;42.38;100464.09;5027463;28;20573;-73
2023/11/12 01:32:14;;;;;;;2.83;1.70;;;;;;;20.29;42.32;100464.09;5023211;28;20048;-72
2023/11/12 01:34:39;;;;;;;2.53;1.70;;;;;;;20.23;42.36;100452.44;5026351;28;20392;-72
2023/11/12 01:37:05;;;;;;;3.22;2.15;;;;;;;20.26;42.25;100455.69;5011097;28;20049;-72
2023/11/12 01:39:30;;;;;;;2.58;1.75;;;;;;;20.23;42.29;100459.53;5028047;28;20041;-72
2023/11/12 01:41:56;;;;;;;2.33;1.75;;;;;;;20.18;42.29;100451.38;5018631;28;20044;-72
2023/11/12 01:44:21;;;;;;;2.08;1.70;;;;;;;20.22;42.40;100452.63;5014450;28;20040;-72
2023/11/12 01:46:51;;;;;;;1.75;1.65;;;;;;;20.20;42.48;100455.47;5022143;28;20719;-73
2023/11/12 01:49:17;;;;;;;2.10;1.90;;;;;;;20.22;42.36;100460.56;5025866;28;20045;-73
2023/11/12 01:51:42;;;;;;;2.22;1.70;;;;;;;20.13;42.47;100443.22;5017676;28;20067;-72
2023/11/12 01:54:08;;;;;;;2.78;1.92;;;;;;;20.19;42.35;100453.84;5026906;28;20033;-72
2023/11/12 01:56:35;;;;;;;1.90;1.80;;;;;;;20.12;42.45;100442.41;5028211;28;20036;-72
2023/11/12 01:59:03;;;;;;;2.35;1.70;;;;;;;20.17;42.46;100447.91;5016084;28;20168;-72
2023/11/12 02:01:29;;;;;;;2.00;1.80;;;;;;;20.11;42.62;100440.75;5026904;28;20530;-72
2023/11/12 02:03:55;;;;;;;3.05;2.08;;;;;;;19.98;42.38;100416.84;5025293;28;20046;-72
2023/11/12 02:06:21;;;;;;;2.00;1.80;;;;;;;20.15;42.44;100449.13;5019024;28;20199;-72
2023/11/12 02:08:46;;;;;;;2.45;1.88;;;;;;;20.16;42.43;100445.47;5019154;28;20045;-72
2023/11/12 02:11:14;;;;;;;1.73;1.63;;;;;;;20.15;42.55;100446.47;5030325;28;20605;-72
2023/11/12 02:13:42;;;;;;;2.03;1.80;;;;;;;20.10;42.42;100441.75;5013971;28;20037;-72
2023/11/12 02:16:09;;;;;;;2.70;1.80;;;;;;;20.15;42.52;100444.66;5021752;28;20034;-72
2023/11/12 02:18:35;;;;;;;2.20;2.00;;;;;;;20.13;42.38;100438.75;5023661;28;20144;-72
2023/11/12 02:21:03;;;;;;;2.30;2.10;;;;;;;20.08;42.42;100445.59;5021076;28;20485;-72
2023/11/12 02:23:37;;;;;;;1.80;1.58;;;;;;;20.06;42.45;100442.31;5017381;28;20107;-73
2023/11/12 02:26:03;;;;;;;2.53;1.95;;;;;;;20.07;42.31;100443.94;5020560;28;20041;-72
2023/11/12 02:28:29;;;;;;;2.25;1.80;;;;;;;20.08;42.45;100445.59;5018145;28;20593;-72
2023/11/12 02:30:55;;;;;;;2.13;1.90;;;;;;;20.01;42.48;100440.25;5021232;28;20080;-72
2023/11/12 02:33:27;;;;;;;2.20;2.00;;;;;;;20.09;42.43;100449.88;5033772;28;20036;-72
2023/11/12 02:35:56;;;;;;;1.70;1.60;;;;;;;20.09;42.44;100449.88;5018959;28;20033;-72
2023/11/12 02:38:23;;;;;;;2.00;1.80;;;;;;;20.08;42.37;100450.88;5022452;28;20784;-72
2023/11/12 02:40:49;;;;;;;2.25;1.90;;;;;;;20.08;42.37;100450.88;5025087;28;20034;-72
2023/11/12 02:43:16;;;;;;;3.33;2.13;;;;;;;20.07;42.37;100457.16;5021923;28;20041;-72
2023/11/12 02:45:42;;;;;;;1.77;1.67;;;;;;;19.97;42.68;100440.84;5024941;28;20037;-72
2023/11/12 02:48:07;;;;;;;2.78;1.98;;;;;;;19.98;42.58;100439.81;5020314;28;20495;-72
2023/11/12 02:50:34;;;;;;;1.88;1.70;;;;;;;19.95;42.30;100437.56;5004997;28;20083;-72
2023/11/12 02:53:03;;;;;;;2.22;2.00;;;;;;;19.97;42.41;100448.75;5020345;28;20060;-72
2023/11/12 02:55:33;;;;;;;2.30;1.95;;;;;;;20.04;42.39;100458.38;5028234;28;20044;-72
2023/11/12 02:57:59;;;;;;;2.25;1.92;;;;;;;20.00;42.51;100451.84;5016963;28;20037;-72
2023/11/12 03:00:27;;;;;;;2.28;1.98;;;;;;;19.99;42.57;100452.03;5020494;28;20055;-72
2023/11/12 03:02:58;;;;;;;2.92;2.00;;;;;;;20.01;42.48;100456.13;5020997;28;20067;-72
2023/11/12 03:05:28;;;;;;;1.75;1.65;;;;;;;20.00;42.28;100459.75;5020656;28;20026;-72
2023/11/12 03:07:54;;;;;;;;;;;;;;;20.00;42.48;100459.75;5021530;28;20046;-72
2023/11/12 03:10:20;;;;;;;2.75;2.00;;;;;;;19.92;42.48;100441.38;5019947;28;19928;-72
2023/11/12 03:12:46;;;;;;;1.80;1.70;;;;;;;20.00;42.18;100428.06;5011023;28;20602;-72
2023/11/12 03:15:12;;;;;;;2.25;1.98;;;;;;;20.14;42.18;100450.94;5027773;28;20068;-72
2023/11/12 03:17:38;;;;;;;2.45;1.90;;;;;;;20.19;42.29;100463.59;5024057;28;20087;-72
2023/11/12 03:20:07;;;;;;;2.50;1.75;;;;;;;20.19;42.28;100456.47;5014809;28;20660;-72
2023/11/12 03:22:33;;;;;;;1.95;1.75;;;;;;;20.20;42.11;100460.75;5021191;28;20789;-72
2023/11/12 03:25:04;;;;;;;2.40;1.98;;;;;;;20.20;42.25;100458.09;5018138;28;20056;-72
2023/11/12 03:27:31;;;;;;;1.83;1.73;;;;;;;20.17;42.33;100455.03;5029758;28;20052;-72
2023/11/12 03:29:56;;;;;;;1.88;1.70;;;;;;;20.08;42.27;100446.41;5022675;28;20029;-72
2023/11/12 03:32:23;;;;;;;2.40;2.20;;;;;;;20.13;42.33;100449.31;5022177;28;20047;-72
2023/11/12 03:34:50;;;;;;;2.10;1.95;;;;;;;20.13;42.19;100454.59;5032226;28;20041;-73
2023/11/12 03:37:20;;;;;;;2.40;2.08;;;;;;;20.01;42.30;100427.03;5021738;28;20033;-72
2023/11/12 03:39:47;;;;;;;2.50;1.98;;;;;;;20.09;42.51;100447.22;5021827;28;20028;-72
2023/11/12 03:42:15;;;;;;;2.30;2.10;;;;;;;20.12;42.39;100447.69;5021509;28;20490;-72
2023/11/12 03:44:41;;;;;;;2.97;2.10;;;;;;;20.12;42.45;100446.88;5009574;28;20037;-72
2023/11/12 03:47:06;;;;;;;3.30;2.00;;;;;;;20.11;42.54;100453.16;5015319;28;20045;-72
2023/11/12 03:49:32;;;;;;;2.10;1.90;;;;;;;20.08;42.46;100448.22;5017390;28;20041;-72
2023/11/12 03:51:58;;;;;;;2.17;1.90;;;;;;;20.08;42.41;100449.03;5021868;28;20030;-72
2023/11/12 03:54:23;;;;;;;3.17;1.80;;;;;;;20.08;42.40;100451.69;5036647;28;20499;-72
2023/11/12 03:56:50;;;;;;;2.10;1.90;;;;;;;20.04;42.31;100431.94;5024395;28;20059;-72
2023/11/12 03:59:16;;;;;;;2.40;2.10;;;;;;;20.06;42.38;100450.25;5025577;28;20515;-72
2023/11/12 04:01:42;;;;;;;2.00;1.77;;;;;;;20.04;42.35;100450.44;5024695;28;20128;-72
2023/11/12 04:04:07;;;;;;;2.33;2.03;;;;;;;19.99;42.33;100439.63;5025259;28;20036;-72
2023/11/12 04:06:33;;;;;;;2.58;1.90;;;;;;;20.00;42.30;100441.25;5028908;28;20037;-72
2023/11/12 04:08:58;;;;;;;1.90;1.80;;;;;;;19.97;42.41;100439.00;5022220;28;20053;-72
2023/11/12 04:11:24;;;;;;;2.30;2.10;;;;;;;20.02;42.30;100446.34;5018385;28;20037;-72
2023/11/12 04:13:49;;;;;;;3.40;2.08;;;;;;;20.01;42.35;100450.81;5025668;28;20080;-72
2023/11/12 04:16:15;;;;;;;2.13;1.92;;;;;;;19.99;42.33;100449.38;5025580;28;20037;-72
2023/11/12 04:18:40;;;;;;;2.30;2.00;;;;;;;19.81;42.31;100418.13;5023087;28;20041;-72
2023/11/12 04:21:06;;;;;;;2.45;2.22;;;;;;;19.91;42.08;100432.63;5022765;28;20036;-72
2023/11/12 04:23:32;;;;;;;2.28;1.95;;;;;;;19.92;42.33;100433.44;5014081;28;20041;-72
2023/11/12 04:25:58;;;;;;;2.40;2.20;;;;;;;19.98;42.26;100445.94;5021893;28;20079;-72
2023/11/12 04:28:26;;;;;;;2.25;2.05;;;;;;;19.97;42.34;100441.66;5020934;28;20141;-72
2023/11/12 04:30:54;;;;;;;2.90;2.17;;;;;;;19.88;42.32;100433.00;5026110;28;20198;-72
2023/11/12 04:33:19;;;;;;;2.10;1.90;;;;;;;19.95;42.36;100433.09;5016119;28;20034;-72
2023/11/12 04:35:49;;;;;;;2.30;2.00;;;;;;;19.79;42.41;100423.59;5022509;28;20029;-72
2023/11/12 04:38:16;;;;;;;2.45;2.10;;;;;;;19.95;42.37;100442.84;5023527;28;20048;-72
2023/11/12 04:40:43;;;;;;;2.50;2.03;;;;;;;19.95;42.07;100448.94;5023885;28;20091;-72
2023/11/12 04:43:09;;;;;;;2.20;2.00;;;;;;;19.83;42.38;100426.66;5021226;28;20092;-72
2023/11/12 04:45:35;;;;;;;2.92;2.15;;;;;;;19.93;42.27;100445.69;5022791;28;20041;-72
2023/11/12 04:48:00;;;;;;;2.88;2.08;;;;;;;19.92;42.33;100455.41;5019207;28;20041;-72
2023/11/12 04:50:26;;;;;;;5.35;2.40;;;;;;;19.92;42.36;100444.03;5025953;28;20115;-72
2023/11/12 04:52:52;;;;;;;2.78;2.28;;;;;;;19.80;42.45;100433.16;5020240;28;20589;-72
2023/11/12 04:55:17;;;;;;;2.55;2.20;;;;;;;19.92;42.47;100454.59;5030713;28;20063;-72
2023/11/12 04:57:43;;;;;;;2.40;1.98;;;;;;;19.84;42.42;100450.25;5028409;28;20498;-72
2023/11/12 05:00:11;;;;;;;2.58;2.10;;;;;;;19.93;42.43;100464.19;5031987;28;20114;-72
2023/11/12 05:02:37;;;;;;;2.50;2.28;;;;;;;19.91;42.35;100456.41;5028078;28;20519;-72
2023/11/12 05:05:06;;;;;;;2.25;2.05;;;;;;;19.92;42.37;100459.88;5024215;28;20060;-72
2023/11/12 05:07:32;;;;;;;3.15;2.50;;;;;;;19.91;42.47;100464.34;5027905;28;20136;-72
2023/11/12 05:09:58;;;;;;;2.85;2.10;;;;;;;19.80;42.45;100433.16;5026466;28;20043;-72
2023/11/12 05:12:24;;;;;;;2.25;2.05;;;;;;;19.84;42.51;100444.97;5033605;28;20045;-72
2023/11/12 05:14:50;;;;;;;3.53;2.20;;;;;;;19.90;42.35;100456.59;5006561;28;20036;-72
2023/11/12 05:17:15;;;;;;;2.38;2.05;;;;;;;19.89;42.40;100457.63;5021159;28;20033;-72
2023/11/12 05:19:41;;;;;;;2.38;2.17;;;;;;;19.88;42.54;100459.44;5032601;28;20029;-72
2023/11/12 05:22:07;;;;;;;2.38;2.17;;;;;;;19.90;42.34;100459.25;5021263;28;20041;-72
2023/11/12 05:24:35;;;;;;;2.47;2.10;;;;;;;19.86;42.47;100455.34;5024764;28;20032;-72
2023/11/12 05:27:01;;;;;;;2.33;2.00;;;;;;;19.87;42.42;100457.81;5024999;28;20069;-72
2023/11/12 05:29:27;;;;;;;2.90;2.20;;;;;;;19.82;42.46;100444.34;5017328;28;20491;-72
2023/11/12 05:31:52;;;;;;;2.85;2.50;;;;;;;19.86;42.49;100464.09;5026032;28;20100;-72
2023/11/12 05:34:18;;;;;;;2.22;2.03;;;;;;;19.79;42.58;100454.47;5021816;28;20095;-72
2023/11/12 05:36:44;;;;;;;2.90;2.13;;;;;;;19.86;42.48;100466.75;5041164;28;20111;-72
2023/11/12 05:39:12;;;;;;;2.25;2.05;;;;;;;19.83;42.44;100461.03;5023618;28;20044;-72
2023/11/12 05:41:38;;;;;;;2.40;2.20;;;;;;;19.82;42.57;100464.66;5030272;28;20484;-72
2023/11/12 05:44:05;;;;;;;3.25;2.10;;;;;;;19.85;42.50;100456.38;5028268;28;20141;-72
2023/11/12 05:46:30;;;;;;;2.58;2.20;;;;;;;19.85;42.53;100466.94;5027560;28;20033;-72
2023/11/12 05:48:56;;;;;;;2.63;2.30;;;;;;;19.87;42.34;100471.00;5027718;28;20684;-72
2023/11/12 05:51:21;;;;;;;3.15;2.30;;;;;;;19.89;42.33;100476.13;5026061;28;20064;-72
2023/11/12 05:53:47;;;;;;;2.45;2.20;;;;;;;19.79;42.54;100465.06;5029362;28;20399;-72
2023/11/12 05:56:12;;;;;;;2.20;2.00;;;;;;;19.84;42.56;100470.59;5019978;28;20034;-73
2023/11/12 05:58:38;;;;;;;2.80;2.38;;;;;;;19.90;42.38;100486.50;5021212;28;20033;-72
2023/11/12 06:01:03;;;;;;;2.20;2.00;;;;;;;19.90;42.44;100488.31;5023573;28;20076;-72
2023/11/12 06:03:29;;;;;;;2.95;2.10;;;;;;;19.85;42.49;100482.78;5021613;28;20043;-72
2023/11/12 06:05:55;;;;;;;3.90;2.40;;;;;;;19.87;42.55;100496.63;5019278;28;20383;-72
2023/11/12 06:08:22;;;;;;;2.20;1.98;;;;;;;19.89;42.31;100498.06;5030469;28;20111;-72
2023/11/12 06:10:48;;;;;;;3.03;2.20;;;;;;;19.88;42.35;100493.78;5026671;28;20038;-72
2023/11/12 06:13:17;;;;;;;3.15;2.30;;;;;;;19.84;42.50;100487.25;5029640;28;20526;-72
2023/11/12 06:15:42;;;;;;;2.92;2.30;;;;;;;19.86;42.54;100492.34;5019871;28;20037;-72
2023/11/12 06:18:08;;;;;;;3.03;2.08;;;;;;;19.76;42.43;100476.00;5028658;28;20030;-72
2023/11/12 06:20:34;;;;;;;3.08;2.00;;;;;;;19.84;42.48;100491.72;5024552;28;20035;-72
2023/11/12 06:22:59;;;;;;;2.42;1.92;;;;;;;19.85;42.45;100490.72;5029178;28;20033;-72
2023/11/12 06:25:25;;;;;;;2.67;2.15;;;;;;;19.83;42.60;100492.72;5023551;28;20084;-72
2023/11/12 06:27:51;;;;;;;3.40;2.17;;;;;;;19.83;42.43;100493.53;5052835;28;20037;-72
2023/11/12 06:30:17;;;;;;;2.35;2.15;;;;;;;19.82;42.50;100493.72;5027646;28;20048;-73
2023/11/12 06:32:43;;;;;;;2.53;2.03;;;;;;;19.80;42.62;100498.38;5017480;28;20425;-72
2023/11/12 06:35:09;;;;;;;2.50;2.00;;;;;;;19.79;42.55;100492.28;5024414;28;20043;-73
2023/11/12 06:37:34;;;;;;;2.17;1.98;;;;;;;19.78;42.49;100489.84;5028711;28;20033;-73
2023/11/12 06:40:00;;;;;;;2.63;2.40;;;;;;;19.80;42.49;100495.75;5028179;28;20038;-72
2023/11/12 06:42:26;;;;;;;2.78;2.20;;;;;;;19.78;42.53;100492.47;5022767;28;20549;-73
2023/11/12 06:44:52;;;;;;;2.53;2.30;;;;;;;19.80;42.54;100495.75;5031502;28;20041;-72
2023/11/12 06:47:18;;;;;;;2.33;2.10;;;;;;;19.78;42.61;100498.59;5024629;28;20048;-73
2023/11/12 06:49:44;;;;;;;2.47;2.28;;;;;;;19.78;42.47;100500.41;5024694;28;20044;-72
2023/11/12 06:52:10;;;;;;;2.95;2.15;;;;;;;19.75;42.52;100501.59;5021847;28;20045;-72
2023/11/12 06:54:35;;;;;;;3.10;2.28;;;;;;;19.71;42.51;100495.03;5024747;28;20041;-73
2023/11/12 06:57:01;;;;;;;2.35;2.08;;;;;;;19.76;42.43;100505.06;5032098;28;20045;-72
2023/11/12 06:59:28;;;;;;;4.07;2.47;;;;;;;19.71;42.49;100502.94;5024700;28;20053;-73
2023/11/12 07:01:54;;;;;;;2.72;2.10;;;;;;;19.68;42.45;100498.06;5029326;28;20495;-73
2023/11/12 07:04:19;;;;;;;2.22;2.03;;;;;;;19.78;42.54;100521.53;5023107;28;20061;-73
2023/11/12 07:06:45;;;;;;;2.40;2.20;;;;;;;19.71;42.52;100510.06;5030998;28;20124;-73
2023/11/12 07:09:12;;;;;;;2.88;2.20;;;;;;;19.82;42.43;100531.53;5024724;28;20073;-72
2023/11/12 07:11:38;;;;;;;3.00;2.30;;;;;;;19.79;42.33;100520.53;5026470;28;20982;-72
2023/11/12 07:14:03;;;;;;;2.70;2.20;;;;;;;19.94;42.11;100520.50;5030880;28;20063;-72
2023/11/12 07:16:29;;;;;;;3.08;1.98;;;;;;;20.28;41.72;100544.41;5009101;28;20508;-72
2023/11/12 07:18:55;;;;;;;2.20;2.00;;;;;;;20.49;40.89;100503.94;5025572;28;20046;-72
2023/11/12 07:21:24;;;;;;;2.60;2.40;;;;;;;21.01;40.44;100539.72;5027490;28;20040;-72
2023/11/12 07:23:50;;;;;;;2.75;1.90;;;;;;;21.00;40.32;100512.41;5021720;28;20473;-72
2023/11/12 07:26:16;;;;;;;3.03;2.50;;;;;;;21.12;40.34;100525.94;5024159;28;20162;-72
2023/11/12 07:28:41;;;;;;;2.30;2.10;;;;;;;21.20;40.12;100536.38;5019531;28;20088;-72
2023/11/12 07:31:08;;;;;;;2.97;2.13;;;;;;;21.08;40.31;100530.00;5026228;28;20037;-72
2023/11/12 07:33:34;;;;;;;2.47;2.20;;;;;;;20.97;40.87;100547.22;5025000;28;20144;-72
2023/11/12 07:35:59;;;;;;;1.83;1.73;;;;;;;20.74;41.20;100533.44;5026356;28;20395;-73
2023/11/12 07:38:25;;;;;;;1.90;1.75;;;;;;;20.61;41.11;100536.78;5023950;28;20037;-73
2023/11/12 07:40:51;;;;;;;3.55;2.22;;;;;;;20.59;41.29;100538.81;5018758;28;20033;-73
2023/11/12 07:43:16;;;;;;;2.20;2.00;;;;;;;20.57;41.45;100548.75;4984582;28;20153;-72
2023/11/12 07:45:42;;;;;;;2.30;2.10;;;;;;;20.56;41.62;100560.34;5022675;28;20038;-73
2023/11/12 07:48:08;;;;;;;2.30;2.10;;;;;;;20.44;41.57;100549.47;5029112;28;20034;-72
2023/11/12 07:50:35;;;;;;;2.60;2.20;;;;;;;20.48;41.77;100556.03;5017626;28;20053;-73
2023/11/12 07:53:03;;;;;;;2.05;1.80;;;;;;;20.48;41.77;100563.16;5025039;28;20037;-73
2023/11/12 07:55:29;;;;;;;1.70;1.60;;;;;;;20.43;41.95;100565.53;5024676;28;20080;-73
2023/11/12 07:57:56;;;;;;;2.13;1.90;;;;;;;20.37;41.92;100553.84;5021118;28;20377;-74
2023/11/12 08:00:22;;;;;;;2.40;1.90;;;;;;;20.40;41.59;100555.28;5020535;28;20037;-73
2023/11/12 08:02:48;;;;;;;2.10;1.90;;;;;;;20.44;41.85;100564.50;5021672;28;20162;-73
2023/11/12 08:05:14;;;;;;;2.45;2.08;;;;;;;20.40;41.72;100564.03;5028901;28;20123;-73
2023/11/12 08:07:40;;;;;;;2.80;2.28;;;;;;;20.54;41.86;100564.19;5020996;28;20151;-75
2023/11/12 08:10:08;;;;;;;2.42;2.00;;;;;;;20.67;41.37;100566.97;5023720;28;20042;-72
2023/11/12 08:12:35;;;;;;;2.00;1.88;;;;;;;20.71;41.18;100576.16;5020725;28;20038;-73
2023/11/12 08:15:01;;;;;;;3.08;2.80;;;;;;;20.62;41.34;100564.06;5024124;28;20079;-73
2023/11/12 08:17:26;;;;;;;1.92;1.80;;;;;;;20.65;41.32;100569.00;5022076;28;20083;-72
2023/11/12 08:19:52;;;;;;;3.50;2.13;;;;;;;20.64;41.19;100586.66;5026835;28;20033;-73
2023/11/12 08:22:19;;;;;;;2.05;1.85;;;;;;;20.65;41.43;100579.56;5023131;28;20046;-73
2023/11/12 08:24:44;;;;;;;2.80;2.10;;;;;;;20.58;41.53;100576.03;5019794;28;20512;-73
2023/11/12 08:27:10;;;;;;;1.92;1.80;;;;;;;20.60;41.52;100584.59;5024270;28;20054;-72
2023/11/12 08:29:35;;;;;;;2.33;2.00;;;;;;;20.54;41.65;100572.97;5032287;28;20106;-73
2023/11/12 08:32:01;;;;;;;3.10;2.00;;;;;;;20.56;41.50;100586.00;5028339;28;20112;-72
2023/11/12 08:34:26;;;;;;;2.00;1.80;;;;;;;20.52;41.41;100583.72;5006514;28;20081;-72
2023/11/12 08:36:52;;;;;;;2.50;2.00;;;;;;;20.51;41.57;100590.03;5022449;28;20045;-72
2023/11/12 08:39:18;;;;;;;3.00;1.88;;;;;;;20.52;41.62;100585.56;5024086;28;20041;-72
2023/11/12 08:41:47;;;;;;;2.53;1.85;;;;;;;20.48;41.43;100589.59;5022865;28;20444;-72
2023/11/12 08:44:13;;;;;;;2.30;2.10;;;;;;;20.47;41.62;100591.44;5029389;28;20106;-72
2023/11/12 08:46:40;;;;;;;3.35;2.22;;;;;;;20.51;41.65;100592.69;5026051;28;20446;-77
2023/11/12 08:49:06;;;;;;;2.05;1.85;;;;;;;20.58;41.58;100598.00;5022732;28;20045;-71
2023/11/12 08:51:33;;;;;;;3.17;2.13;;;;;;;20.64;41.57;100596.44;5021420;28;20034;-72
2023/11/12 08:53:59;;;;;;;2.25;1.92;;;;;;;20.65;41.55;100596.25;5028467;28;20722;-71
2023/11/12 08:56:25;;;;;;;2.35;1.90;;;;;;;20.65;41.44;100598.91;5029855;28;20029;-71
2023/11/12 08:58:51;;;;;;;3.13;1.80;;;;;;;20.64;41.63;100594.59;5006669;28;20045;-71
2023/11/12 09:01:17;;;;;;;3.08;1.92;;;;;;;20.63;41.35;100594.78;5028390;28;20053;-71
2023/11/12 09:03:43;;;;;;;1.90;1.65;;;;;;;20.67;41.35;100594.25;5021910;28;20067;-71
2023/11/12 09:06:10;;;;;;;2.10;1.90;;;;;;;20.72;41.29;100598.94;5021936;28;20033;-71
2023/11/12 09:08:36;;;;;;;3.50;2.00;;;;;;;20.59;41.19;100582.97;5030411;28;20041;-71
2023/11/12 09:11:03;;;;;;;3.28;1.95;;;;;;;20.63;41.41;100592.97;5025792;28;20045;-71
2023/11/12 09:13:29;;;;;;;3.38;2.08;;;;;;;20.69;41.42;100600.16;5024865;28;20796;-71
2023/11/12 09:15:54;;;;;;;2.65;1.73;;;;;;;20.68;41.46;100614.41;5024779;28;20044;-70
2023/11/12 09:18:20;;;;;;;2.22;2.03;;;;;;;20.59;41.45;100602.28;5025374;28;20037;-74
2023/11/12 09:20:46;;;;;;;2.35;1.98;;;;;;;20.56;41.57;100607.16;5023782;28;20033;-71
2023/11/12 09:23:12;;;;;;;3.28;2.05;;;;;;;20.62;41.70;100616.97;5027547;28;20455;-71
2023/11/12 09:25:38;;;;;;;1.85;1.75;;;;;;;20.62;41.54;100616.97;5021756;28;20140;-72
2023/11/12 09:28:06;;;;;;;3.10;2.10;;;;;;;20.56;41.62;100607.16;5030015;28;20060;-72
2023/11/12 09:30:34;;;;;;;2.72;1.92;;;;;;;20.61;41.61;100618.78;5024184;28;20069;-71
2023/11/12 09:33:00;;;;;;;2.30;2.10;;;;;;;20.48;41.47;100611.56;5025724;28;20426;-71
2023/11/12 09:35:25;;;;;;;2.90;1.88;;;;;;;20.57;41.67;100624.66;5028536;28;20045;-72
2023/11/12 09:37:51;;;;;;;2.97;2.10;;;;;;;20.49;41.32;100625.63;5022079;28;20048;-71
2023/11/12 09:40:17;;;;;;;3.00;2.17;;;;;;;20.52;41.60;100625.22;5027568;28;20038;-71
2023/11/12 09:42:51;;;;;;;2.17;1.80;;;;;;;20.58;41.52;100619.19;5027076;28;20538;-71
2023/11/12 09:45:18;;;;;;;2.30;1.95;;;;;;;20.63;41.24;100600.91;5023402;28;20582;-72
2023/11/12 09:47:53;;;;;;;2.38;1.90;;;;;;;21.07;40.63;100621.84;5029097;28;20041;-71
2023/11/12 09:50:22;;;;;;;2.50;1.95;;;;;;;21.17;40.57;100623.31;5025171;28;20119;-70
2023/11/12 09:52:49;;;;;;;2.40;2.00;;;;;;;21.15;40.77;100618.22;5023448;28;20045;-72
2023/11/12 09:55:16;;;;;;;1.90;1.80;;;;;;;21.08;40.84;100620.00;5034562;28;20037;-72
2023/11/12 09:57:43;;;;;;;2.80;1.95;;;;;;;21.00;41.00;100613.00;5030202;28;20314;-72
2023/11/12 10:00:12;;;;;;;1.80;1.70;;;;;;;21.01;41.05;100633.19;5023333;28;20040;-71
2023/11/12 10:02:39;;;;;;;2.47;2.13;;;;;;;20.91;41.10;100630.06;5022953;28;20412;-72
2023/11/12 10:05:10;;;;;;;2.45;1.98;;;;;;;20.92;41.12;100633.53;5019009;28;20617;-72
2023/11/12 10:07:39;;;;;;;1.85;1.67;;;;;;;20.89;41.31;100636.56;5025023;28;20042;-72
2023/11/12 10:10:26;;;;;;;4.63;2.33;;;;;;;20.65;41.64;100635.13;5021754;28;20080;-73
2023/11/12 10:12:54;;;;;;;3.38;2.10;;;;;;;20.79;41.35;100639.50;5021684;28;20467;-76
2023/11/12 10:15:27;;;;;;;4.60;2.10;;;;;;;20.72;41.39;100630.72;5022672;28;20647;-76
2023/11/12 10:17:53;;;;;;;2.78;2.42;;;;;;;20.77;41.58;100634.41;5030069;28;20116;-74
2023/11/12 10:20:20;;;;;;;2.15;1.98;;;;;;;20.75;41.70;100633.78;5041465;28;20333;-74
2023/11/12 10:22:46;;;;;;;2.00;1.80;;;;;;;20.74;41.73;100634.78;5027106;28;20415;-74
2023/11/12 10:25:12;;;;;;;2.75;1.80;;;;;;;20.76;41.50;100642.53;5034048;28;20095;-74
2023/11/12 10:27:52;;;;;;;2.30;2.10;;;;;;;20.73;41.74;100638.44;5058551;28;20518;-74
2023/11/12 10:30:18;;;;;;;;;;;;;;;20.73;41.73;100640.28;5031283;28;20138;-74
2023/11/12 10:32:44;;;;;;;3.60;2.42;;;;;;;20.68;41.76;100627.63;5032413;28;20002;-74
2023/11/12 10:35:10;;;;;;;3.03;2.30;;;;;;;20.46;41.75;100600.34;5029272;28;20034;-74
2023/11/12 10:37:56;;;;;;;2.78;1.83;;;;;;;20.70;41.65;100636.19;5030820;28;20091;-74
2023/11/12 10:40:24;;;;;;;2.83;2.00;;;;;;;20.70;41.72;100632.72;5024088;28;20437;-74
2023/11/12 10:42:57;;;;;;;3.10;1.90;;;;;;;20.69;41.81;100634.56;5025982;28;20040;-75
2023/11/12 10:45:24;;;;;;;4.78;2.20;;;;;;;20.66;41.90;100637.59;5023022;28;20463;-76
2023/11/12 10:47:54;;;;;;;3.75;2.10;;;;;;;20.56;41.95;100623.84;5032770;28;20041;-75
2023/11/12 10:50:20;;;;;;;4.13;2.17;;;;;;;20.66;41.66;100639.41;5022509;28;20392;-75
2023/11/12 10:52:46;;;;;;;2.75;2.20;;;;;;;20.65;41.81;100632.50;5026419;28;20051;-75
2023/11/12 10:55:14;;;;;;;2.88;1.92;;;;;;;20.62;41.55;100631.00;5056300;28;20115;-75
2023/11/12 10:57:43;;;;;;;2.33;2.10;;;;;;;20.58;41.75;100629.75;5034422;28;20067;-75
2023/11/12 11:00:11;;;;;;;2.72;2.10;;;;;;;20.52;41.74;100623.41;5030879;28;20029;-75
2023/11/12 11:02:44;;;;;;;3.35;2.38;;;;;;;20.62;41.53;100641.59;5029053;28;20049;-75
2023/11/12 11:05:12;;;;;;;3.72;2.20;;;;;;;20.67;41.47;100633.13;5030362;28;20124;-75
2023/11/12 11:07:38;;;;;;;2.13;1.70;;;;;;;20.80;41.45;100631.38;5027710;28;20418;-75
2023/11/12 11:10:06;;;;;;;3.17;2.05;;;;;;;20.78;41.47;100622.00;5031659;28;20053;-75
2023/11/12 11:12:33;;;;;;;2.08;1.88;;;;;;;20.90;41.13;100636.38;5029377;28;20292;-75
2023/11/12 11:15:36;;;;;;;3.38;1.95;;;;;;;20.87;41.35;100628.81;5030665;28;20047;-75
2023/11/12 11:18:03;;;;;;;5.03;2.10;;;;;;;20.78;41.45;100614.06;5032418;28;20044;-74
2023/11/12 11:21:03;;;;;;;2.75;2.05;;;;;;;20.84;41.25;100631.84;5033298;28;20021;-74
2023/11/12 11:23:41;;;;;;;3.55;2.08;;;;;;;20.83;41.38;100629.38;5032829;28;20040;-74
2023/11/12 11:26:27;;;;;;;2.33;2.00;;;;;;;20.80;41.37;100626.09;5033939;28;20041;-75